Time;durP1;ratioP1;P1;durP2;ratioP2;P2;SDS_P1;SDS_P2;PMS_P1;PMS_P2;Temp;Humidity;BMP_temperature;BMP_pressure;BME280_temperature;BME280_humidity;BME280_pressure;Samples;Min_cycle;Max_cycle;Signal;HPM_P1;HPM_P2
2022/06/07 00:02:24;;;;;;;9.43;5.88;;;;;;;;;;4996310;28;20090;-47
2022/06/07 00:04:52;;;;;;;11.90;6.45;;;;;;;;;;4996988;28;20086;-49
2022/06/07 00:07:26;;;;;;;11.45;6.57;;;;;;;;;;4998133;28;20144;-46
2022/06/07 00:09:53;;;;;;;8.82;6.50;;;;;;;;;;4996759;28;20105;-48
2022/06/07 00:12:20;;;;;;;8.57;6.20;;;;;;;;;;4995792;28;20105;-46
2022/06/07 00:14:53;;;;;;;10.48;6.35;;;;;;;;;;5000900;28;20086;-62
2022/06/07 00:17:20;;;;;;;9.13;6.72;;;;;;;;;;5004372;28;20077;-50
2022/06/07 00:19:47;;;;;;;8.07;6.32;;;;;;;;;;4996949;28;20062;-52
2022/06/07 00:22:20;;;;;;;10.95;5.85;;;;;;;;;;5000096;28;20129;-49
2022/06/07 00:24:47;;;;;;;7.55;5.88;;;;;;;;;;5001580;28;20449;-48
2022/06/07 00:27:13;;;;;;;8.57;6.22;;;;;;;;;;4999978;28;20082;-48
2022/06/07 00:29:46;;;;;;;8.70;5.82;;;;;;;;;;4999694;28;20112;-51
2022/06/07 00:32:14;;;;;;;7.65;6.20;;;;;;;;;;5000783;28;20093;-45
2022/06/07 00:34:40;;;;;;;9.75;6.45;;;;;;;;;;4997318;28;22139;-60
2022/06/07 00:37:14;;;;;;;10.40;6.38;;;;;;;;;;4997340;28;20097;-66
2022/06/07 00:39:40;;;;;;;9.87;6.47;;;;;;;;;;5000025;28;20096;-66
2022/06/07 00:42:06;;;;;;;13.77;6.50;;;;;;;;;;4998622;28;20090;-66
2022/06/07 00:44:42;;;;;;;12.13;5.18;;;;;;;;;;4998018;28;20054;-67
2022/06/07 00:47:11;;;;;;;8.90;6.50;;;;;;;;;;5000589;28;20078;-67
2022/06/07 00:49:58;;;;;;;8.73;6.30;;;;;;;;;;4997173;28;20136;-66
2022/06/07 00:52:32;;;;;;;11.02;6.55;;;;;;;;;;4967094;28;20141;-53
2022/06/07 00:54:59;;;;;;;8.25;6.32;;;;;;;;;;4997482;28;20134;-59
2022/06/07 00:57:26;;;;;;;8.65;6.20;;;;;;;;;;5000349;28;20058;-53
2022/06/07 00:59:59;;;;;;;7.45;6.25;;;;;;;;;;4982795;28;20054;-51
2022/06/07 01:02:26;;;;;;;10.68;6.53;;;;;;;;;;5001715;28;20529;-48
2022/06/07 01:04:52;;;;;;;10.65;5.97;;;;;;;;;;4999069;28;20058;-53
2022/06/07 01:13:02;;;;;;;9.32;6.18;;;;;;;;;;4999433;28;20073;-44
2022/06/07 01:15:29;;;;;;;9.43;6.65;;;;;;;;;;4997871;28;20541;-52
2022/06/07 01:17:55;;;;;;;11.50;7.35;;;;;;;;;;4999652;28;20054;-51
2022/06/07 01:20:35;;;;;;;9.30;7.30;;;;;;;;;;4998951;28;20090;-53
2022/06/07 01:23:01;;;;;;;10.32;6.78;;;;;;;;;;4999574;28;20147;-53
2022/06/07 01:25:28;;;;;;;13.73;6.95;;;;;;;;;;5001062;28;20085;-51
2022/06/07 01:28:02;;;;;;;8.30;6.75;;;;;;;;;;5000725;28;20046;-52
2022/06/07 01:30:28;;;;;;;9.88;6.50;;;;;;;;;;4998391;28;20046;-53
2022/06/07 01:32:55;;;;;;;10.48;7.20;;;;;;;;;;4997002;28;20060;-50
2022/06/07 01:35:28;;;;;;;9.80;6.40;;;;;;;;;;4997629;28;20050;-63
2022/06/07 01:37:55;;;;;;;10.43;6.90;;;;;;;;;;4998928;28;20169;-63
2022/06/07 01:43:13;;;;;;;8.02;7.03;;;;;;;;;;5000931;28;20082;-62
2022/06/07 01:45:40;;;;;;;10.85;6.85;;;;;;;;;;4997895;28;20146;-63
2022/06/07 01:48:06;;;;;;;10.68;7.30;;;;;;;;;;4994403;28;20045;-63
2022/06/07 01:50:39;;;;;;;10.48;7.10;;;;;;;;;;4998711;28;20105;-46
2022/06/07 01:53:06;;;;;;;9.10;6.88;;;;;;;;;;5000267;28;20085;-52
2022/06/07 01:55:32;;;;;;;8.02;6.55;;;;;;;;;;4995321;28;20160;-47
2022/06/07 01:58:05;;;;;;;10.82;6.97;;;;;;;;;;5000004;28;20088;-46
2022/06/07 02:00:32;;;;;;;7.82;6.70;;;;;;;;;;5000244;28;20164;-47
2022/06/07 02:02:58;;;;;;;13.57;6.75;;;;;;;;;;4998959;28;20477;-47
2022/06/07 02:05:31;;;;;;;9.48;7.78;;;;;;;;;;4999763;28;20066;-46
2022/06/07 02:07:58;;;;;;;10.20;7.30;;;;;;;;;;5000367;28;20567;-46
2022/06/07 02:10:25;;;;;;;8.80;6.40;;;;;;;;;;4997149;28;20050;-60
2022/06/07 02:12:58;;;;;;;7.50;6.72;;;;;;;;;;4996663;28;20078;-44
2022/06/07 02:15:25;;;;;;;9.82;7.35;;;;;;;;;;4999343;28;20736;-45
2022/06/07 02:17:51;;;;;;;8.82;7.22;;;;;;;;;;4998388;28;20054;-44
2022/06/07 02:20:31;;;;;;;10.20;7.57;;;;;;;;;;4994280;28;20046;-46
2022/06/07 02:22:57;;;;;;;9.43;7.93;;;;;;;;;;4997293;28;20086;-46
2022/06/07 02:25:24;;;;;;;11.35;7.78;;;;;;;;;;4999169;28;20054;-44
2022/06/07 02:27:57;;;;;;;9.32;6.88;;;;;;;;;;4995542;28;20093;-51
2022/06/07 02:30:24;;;;;;;8.90;7.55;;;;;;;;;;4995249;28;20042;-45
2022/06/07 02:32:50;;;;;;;10.13;7.10;;;;;;;;;;5004554;28;20081;-49
2022/06/07 02:35:23;;;;;;;10.77;7.68;;;;;;;;;;4999312;28;20092;-51
2022/06/07 02:37:50;;;;;;;9.90;7.45;;;;;;;;;;5002309;28;20133;-53
2022/06/07 02:40:16;;;;;;;11.07;7.15;;;;;;;;;;4998669;28;20057;-51
2022/06/07 02:42:49;;;;;;;8.40;6.70;;;;;;;;;;4998590;28;20725;-51
2022/06/07 02:45:16;;;;;;;11.02;7.15;;;;;;;;;;4997814;28;20597;-50
2022/06/07 02:47:43;;;;;;;12.70;8.03;;;;;;;;;;4997927;28;20050;-59
2022/06/07 02:50:17;;;;;;;12.18;7.40;;;;;;;;;;5002262;28;20046;-62
2022/06/07 02:52:43;;;;;;;9.10;7.47;;;;;;;;;;4999542;28;20092;-59
2022/06/07 02:55:10;;;;;;;8.90;7.28;;;;;;;;;;4996119;28;20541;-59
2022/06/07 02:57:43;;;;;;;8.73;7.57;;;;;;;;;;4998977;28;20504;-60
2022/06/07 03:00:13;;;;;;;10.43;7.80;;;;;;;;;;4997856;28;20054;-59
2022/06/07 03:02:40;;;;;;;9.95;7.35;;;;;;;;;;4999341;28;20053;-60
2022/06/07 03:05:14;;;;;;;8.85;7.07;;;;;;;;;;4997859;28;20054;-59
2022/06/07 03:07:41;;;;;;;9.37;7.63;;;;;;;;;;4998727;28;20129;-47
2022/06/07 03:10:07;;;;;;;9.32;7.97;;;;;;;;;;4996771;28;20301;-60
2022/06/07 03:12:40;;;;;;;10.32;7.28;;;;;;;;;;4998921;28;20049;-59
2022/06/07 03:15:08;;;;;;;9.07;7.80;;;;;;;;;;5001008;28;20062;-59
2022/06/07 03:17:35;;;;;;;10.25;7.20;;;;;;;;;;5003377;28;20057;-59
2022/06/07 03:20:22;;;;;;;9.40;7.25;;;;;;;;;;4999817;28;20092;-60
2022/06/07 03:22:55;;;;;;;10.80;7.25;;;;;;;;;;4995529;28;21118;-60
2022/06/07 03:25:28;;;;;;;9.93;7.00;;;;;;;;;;4998442;28;20081;-52
2022/06/07 03:27:55;;;;;;;8.20;7.07;;;;;;;;;;4994644;28;20334;-56
2022/06/07 03:30:21;;;;;;;9.90;7.07;;;;;;;;;;4996635;28;20101;-56
2022/06/07 03:32:54;;;;;;;7.95;6.75;;;;;;;;;;4996267;28;20089;-53
2022/06/07 03:35:21;;;;;;;11.20;7.55;;;;;;;;;;4994802;28;20567;-55
2022/06/07 03:37:48;;;;;;;8.60;7.50;;;;;;;;;;4996899;28;20489;-51
2022/06/07 03:43:07;;;;;;;9.20;7.03;;;;;;;;;;5000144;28;20050;-51
2022/06/07 03:45:41;;;;;;;7.68;6.88;;;;;;;;;;4997547;28;20104;-47
2022/06/07 03:48:08;;;;;;;8.55;6.78;;;;;;;;;;4999154;28;20100;-46
2022/06/07 03:50:41;;;;;;;8.18;5.53;;;;;;;;;;4997750;28;20508;-43
2022/06/07 03:53:14;;;;;;;8.65;6.60;;;;;;;;;;4997830;28;20765;-49
2022/06/07 03:55:42;;;;;;;9.23;6.60;;;;;;;;;;4998047;28;20058;-44
2022/06/07 03:58:10;;;;;;;11.25;6.60;;;;;;;;;;5001003;28;20047;-43
2022/06/07 04:00:44;;;;;;;12.02;6.88;;;;;;;;;;4999769;28;20054;-45
2022/06/07 04:03:10;;;;;;;9.75;6.63;;;;;;;;;;5001316;28;20085;-54
2022/06/07 04:05:44;;;;;;;12.13;7.85;;;;;;;;;;5002492;28;20058;-47
2022/06/07 04:08:18;;;;;;;9.00;6.32;;;;;;;;;;4998240;28;20077;-53
2022/06/07 04:10:48;;;;;;;7.57;6.00;;;;;;;;;;4998187;28;20058;-56
2022/06/07 04:13:15;;;;;;;8.65;6.68;;;;;;;;;;5000887;28;20073;-55
2022/06/07 04:15:48;;;;;;;7.88;6.90;;;;;;;;;;4998452;28;20109;-54
2022/06/07 04:18:15;;;;;;;11.00;6.88;;;;;;;;;;4999267;28;20077;-55
2022/06/07 04:20:42;;;;;;;10.77;7.00;;;;;;;;;;4985525;28;20045;-54
2022/06/07 04:23:17;;;;;;;9.68;6.97;;;;;;;;;;5001355;28;20077;-67
2022/06/07 04:25:44;;;;;;;10.48;6.72;;;;;;;;;;4999015;28;20054;-50
2022/06/07 04:28:11;;;;;;;7.85;6.90;;;;;;;;;;4996566;28;20135;-47
2022/06/07 04:30:45;;;;;;;8.75;6.97;;;;;;;;;;4986912;28;20749;-52
2022/06/07 04:33:15;;;;;;;12.70;6.82;;;;;;;;;;5000149;28;20049;-46
2022/06/07 04:35:45;;;;;;;8.77;6.97;;;;;;;;;;4998614;28;20054;-53
2022/06/07 04:38:18;;;;;;;14.85;7.60;;;;;;;;;;5000190;28;20505;-47
2022/06/07 04:40:45;;;;;;;10.25;7.55;;;;;;;;;;5000896;28;20129;-67
2022/06/07 04:43:12;;;;;;;11.33;7.00;;;;;;;;;;5002036;28;20160;-60
2022/06/07 04:45:44;;;;;;;11.52;6.60;;;;;;;;;;5000910;28;20425;-45
2022/06/07 04:48:11;;;;;;;9.18;6.40;;;;;;;;;;4999389;28;20050;-47
2022/06/07 04:50:38;;;;;;;9.52;6.45;;;;;;;;;;4999054;28;20058;-47
2022/06/07 04:53:10;;;;;;;7.53;6.25;;;;;;;;;;5000147;28;20096;-49
2022/06/07 04:55:38;;;;;;;8.40;6.10;;;;;;;;;;5000033;28;20093;-45
2022/06/07 04:58:04;;;;;;;6.18;5.53;;;;;;;;;;4999020;28;20060;-49
2022/06/07 05:00:38;;;;;;;7.82;5.63;;;;;;;;;;4997794;28;20121;-62
2022/06/07 05:03:04;;;;;;;9.93;6.28;;;;;;;;;;4998964;28;20050;-54
2022/06/07 05:05:31;;;;;;;9.38;6.60;;;;;;;;;;4999083;28;20081;-67
2022/06/07 05:08:04;;;;;;;9.25;6.03;;;;;;;;;;4997909;28;20054;-67
2022/06/07 05:10:31;;;;;;;9.50;6.40;;;;;;;;;;4999204;28;20047;-67
2022/06/07 05:12:57;;;;;;;8.15;6.32;;;;;;;;;;5001822;28;20581;-67
2022/06/07 05:15:32;;;;;;;10.07;6.38;;;;;;;;;;5000947;28;20617;-67
2022/06/07 05:17:58;;;;;;;8.85;6.78;;;;;;;;;;5002343;28;20054;-67
2022/06/07 05:20:25;;;;;;;10.50;5.82;;;;;;;;;;4999232;28;20081;-68
2022/06/07 05:22:57;;;;;;;10.93;5.65;;;;;;;;;;5003674;28;20085;-44
2022/06/07 05:25:24;;;;;;;13.82;6.05;;;;;;;;;;5000960;28;20057;-47
2022/06/07 05:27:50;;;;;;;8.30;5.47;;;;;;;;;;5003304;28;20506;-46
2022/06/07 05:30:24;;;;;;;6.50;5.70;;;;;;;;;;5002820;28;20163;-43
2022/06/07 05:32:50;;;;;;;12.10;5.80;;;;;;;;;;5001024;28;20058;-46
2022/06/07 05:35:17;;;;;;;6.85;5.40;;;;;;;;;;5001000;28;20061;-44
2022/06/07 05:37:56;;;;;;;10.35;4.80;;;;;;;;;;5003000;28;20060;-47
2022/06/07 05:40:22;;;;;;;7.10;5.18;;;;;;;;;;5001651;28;20057;-60
2022/06/07 05:42:49;;;;;;;6.38;4.55;;;;;;;;;;5000301;28;20078;-53
2022/06/07 05:45:22;;;;;;;10.57;5.15;;;;;;;;;;4998118;28;20050;-53
2022/06/07 05:47:49;;;;;;;8.25;4.65;;;;;;;;;;4999807;28;20133;-51
2022/06/07 05:50:22;;;;;;;5.70;4.95;;;;;;;;;;5001591;28;20062;-49
2022/06/07 05:52:55;;;;;;;5.85;4.70;;;;;;;;;;5003969;28;20108;-50
2022/06/07 05:55:22;;;;;;;5.82;4.90;;;;;;;;;;4999603;28;20709;-51
2022/06/07 05:57:54;;;;;;;7.60;4.82;;;;;;;;;;5001074;28;20124;-60
2022/06/07 06:00:28;;;;;;;7.18;5.10;;;;;;;;;;4999702;28;20530;-69
2022/06/07 06:02:54;;;;;;;6.80;4.73;;;;;;;;;;4998398;28;20100;-54
2022/06/07 06:05:20;;;;;;;6.88;4.38;;;;;;;;;;4995680;28;20054;-50
2022/06/07 06:10:39;;;;;;;6.45;4.55;;;;;;;;;;5002379;28;20081;-52
2022/06/07 06:13:12;;;;;;;5.75;4.15;;;;;;;;;;5001373;28;20085;-52
2022/06/07 06:15:39;;;;;;;10.05;4.97;;;;;;;;;;5001353;28;20058;-51
2022/06/07 06:18:08;;;;;;;7.22;4.55;;;;;;;;;;5001388;28;20113;-60
2022/06/07 06:20:59;;;;;;;7.72;5.07;;;;;;;;;;4999505;28;20104;-59
2022/06/07 06:23:33;;;;;;;7.13;5.07;;;;;;;;;;5000847;28;20105;-59
2022/06/07 06:26:13;;;;;;;6.20;4.90;;;;;;;;;;4997458;28;20336;-59
2022/06/07 06:28:41;;;;;;;5.60;4.53;;;;;;;;;;5000512;28;20050;-59
2022/06/07 06:31:15;;;;;;;7.60;4.55;;;;;;;;;;4998781;28;20141;-59
2022/06/07 06:33:46;;;;;;;5.03;4.43;;;;;;;;;;4996573;28;20054;-59
2022/06/07 06:36:14;;;;;;;7.50;4.25;;;;;;;;;;4999672;28;20492;-47
2022/06/07 06:38:47;;;;;;;4.68;4.00;;;;;;;;;;4997870;28;20102;-45
2022/06/07 06:41:16;;;;;;;5.72;4.18;;;;;;;;;;4997220;28;20050;-46
2022/06/07 06:43:42;;;;;;;5.30;3.83;;;;;;;;;;4999841;28;20407;-43
2022/06/07 06:46:19;;;;;;;6.47;3.65;;;;;;;;;;4998558;28;20062;-43
2022/06/07 06:48:45;;;;;;;5.13;3.35;;;;;;;;;;4995913;28;20528;-41
2022/06/07 06:51:13;;;;;;;5.90;3.90;;;;;;;;;;4995666;28;20085;-44
2022/06/07 06:53:47;;;;;;;3.10;2.80;;;;;;;;;;5003422;28;20054;-42
2022/06/07 06:56:14;;;;;;;;;;;;;;;;;;4997590;28;20100;-55
2022/06/07 06:58:40;;;;;;;4.38;3.25;;;;;;;;;;4999946;28;19991;-65
2022/06/07 07:01:15;;;;;;;4.05;3.38;;;;;;;;;;4998279;28;20092;-64
2022/06/07 07:03:41;;;;;;;6.05;3.55;;;;;;;;;;4998983;28;20141;-65
2022/06/07 07:06:10;;;;;;;4.00;3.03;;;;;;;;;;4995031;28;20046;-64
2022/06/07 07:08:45;;;;;;;3.35;2.80;;;;;;;;;;4995936;28;20454;-65
2022/06/07 07:11:19;;;;;;;5.55;3.40;;;;;;;;;;4998641;28;20050;-67
2022/06/07 07:13:53;;;;;;;5.07;2.97;;;;;;;;;;4996743;28;20060;-61
2022/06/07 07:16:21;;;;;;;5.00;2.83;;;;;;;;;;4999492;28;20902;-50
2022/06/07 07:18:49;;;;;;;3.42;3.08;;;;;;;;;;5000153;28;20054;-52
2022/06/07 07:21:33;;;;;;;3.95;3.17;;;;;;;;;;4997814;28;20539;-52
2022/06/07 07:24:01;;;;;;;4.38;3.20;;;;;;;;;;5000255;28;20072;-56
2022/06/07 07:26:38;;;;;;;4.47;2.80;;;;;;;;;;4998042;28;20085;-55
2022/06/07 07:29:05;;;;;;;6.88;3.53;;;;;;;;;;5001508;28;20050;-55
2022/06/07 07:31:33;;;;;;;5.13;3.40;;;;;;;;;;4994876;28;20093;-55
2022/06/07 07:34:08;;;;;;;4.30;3.05;;;;;;;;;;4997628;28;20054;-52
2022/06/07 07:36:35;;;;;;;4.75;3.20;;;;;;;;;;4999707;28;20054;-61
2022/06/07 07:39:02;;;;;;;3.72;3.05;;;;;;;;;;4996082;28;20097;-61
2022/06/07 07:41:36;;;;;;;5.70;3.10;;;;;;;;;;4999419;28;20685;-61
2022/06/07 07:44:03;;;;;;;3.90;3.30;;;;;;;;;;4999517;28;20050;-61
2022/06/07 07:46:30;;;;;;;;;;;;;;;;;;4998058;28;20054;-61
2022/06/07 07:49:04;;;;;;;3.78;3.17;;;;;;;;;;4997390;28;19925;-61
2022/06/07 07:51:32;;;;;;;6.70;3.17;;;;;;;;;;4997521;28;20054;-60
2022/06/07 07:53:59;;;;;;;4.38;3.45;;;;;;;;;;4996104;28;20089;-50
2022/06/07 07:56:33;;;;;;;3.88;3.40;;;;;;;;;;5000089;28;20105;-68
2022/06/07 07:59:00;;;;;;;3.83;3.35;;;;;;;;;;4997687;28;20156;-67
2022/06/07 08:01:28;;;;;;;3.90;3.45;;;;;;;;;;4997467;28;20060;-67
2022/06/07 08:04:01;;;;;;;4.68;3.67;;;;;;;;;;4997447;28;20561;-68
2022/06/07 08:06:29;;;;;;;5.50;3.60;;;;;;;;;;4989041;28;20565;-68
2022/06/07 08:08:57;;;;;;;7.43;3.40;;;;;;;;;;4997898;28;20529;-67
2022/06/07 08:11:32;;;;;;;3.75;3.15;;;;;;;;;;4998675;28;20085;-46
2022/06/07 08:13:59;;;;;;;3.35;3.05;;;;;;;;;;4999093;28;20058;-60
2022/06/07 08:16:25;;;;;;;3.50;3.00;;;;;;;;;;4999282;28;20144;-69
2022/06/07 08:19:08;;;;;;;4.38;3.03;;;;;;;;;;4996566;28;20050;-68
2022/06/07 08:21:41;;;;;;;4.28;3.28;;;;;;;;;;4994615;28;20062;-69
2022/06/07 08:24:21;;;;;;;5.78;3.70;;;;;;;;;;4997538;28;20054;-68
2022/06/07 08:26:49;;;;;;;8.00;4.40;;;;;;;;;;4994048;28;20102;-69
2022/06/07 08:29:22;;;;;;;4.18;3.70;;;;;;;;;;4996298;28;20073;-62
2022/06/07 08:31:49;;;;;;;4.45;3.92;;;;;;;;;;4978173;28;20058;-48
2022/06/07 08:39:54;;;;;;;7.97;3.80;;;;;;;;;;4997520;28;20113;-47
2022/06/07 08:42:51;;;;;;;5.72;4.47;;;;;;;;;;4997019;28;20104;-50
2022/06/07 08:45:21;;;;;;;5.45;4.22;;;;;;;;;;4989316;28;21759;-49
2022/06/07 08:48:01;;;;;;;6.93;4.32;;;;;;;;;;4998212;28;20425;-48
2022/06/07 08:50:46;;;;;;;5.50;4.15;;;;;;;;;;4999903;28;20604;-69
2022/06/07 08:53:22;;;;;;;4.78;3.80;;;;;;;;;;5000806;28;20518;-54
2022/06/07 08:55:59;;;;;;;4.10;3.70;;;;;;;;;;5000543;28;20105;-48
2022/06/07 08:58:35;;;;;;;4.85;4.32;;;;;;;;;;5002952;28;20560;-52
2022/06/07 09:01:25;;;;;;;5.88;4.07;;;;;;;;;;5002530;28;20521;-48
2022/06/07 09:03:59;;;;;;;6.60;3.80;;;;;;;;;;4972813;28;20069;-53
2022/06/07 09:06:29;;;;;;;5.43;4.22;;;;;;;;;;4999591;28;20058;-52
2022/06/07 09:08:57;;;;;;;5.35;3.92;;;;;;;;;;5003020;28;20089;-54
2022/06/07 09:14:33;;;;;;;5.00;3.90;;;;;;;;;;4999609;28;20086;-69
2022/06/07 09:17:17;;;;;;;5.32;3.92;;;;;;;;;;5000070;28;20049;-68
2022/06/07 09:19:44;;;;;;;5.15;3.92;;;;;;;;;;4999006;28;20152;-71
2022/06/07 09:22:29;;;;;;;6.78;3.88;;;;;;;;;;4996543;28;20057;-69
2022/06/07 09:24:59;;;;;;;4.68;3.90;;;;;;;;;;5002410;28;20679;-69
2022/06/07 09:27:33;;;;;;;4.63;4.03;;;;;;;;;;4999963;28;20053;-60
2022/06/07 09:30:11;;;;;;;3.90;3.50;;;;;;;;;;5000793;28;20050;-69
2022/06/07 09:32:45;;;;;;;5.22;4.25;;;;;;;;;;5000982;28;20093;-69
2022/06/07 09:35:20;;;;;;;8.77;4.10;;;;;;;;;;5003408;28;21655;-69
2022/06/07 09:38:00;;;;;;;4.93;4.22;;;;;;;;;;5001494;28;20112;-68
2022/06/07 09:40:31;;;;;;;5.82;4.05;;;;;;;;;;5001222;28;20093;-70
2022/06/07 09:43:04;;;;;;;;;;;;;;;;;;5001697;28;20116;-69
2022/06/07 09:45:35;;;;;;;6.07;4.30;;;;;;;;;;5001512;28;19968;-70
2022/06/07 09:48:17;;;;;;;6.63;4.22;;;;;;;;;;5001966;28;20485;-53
2022/06/07 09:51:09;;;;;;;4.88;4.03;;;;;;;;;;5001300;28;20517;-70
2022/06/07 09:53:41;;;;;;;7.80;4.65;;;;;;;;;;5001566;28;20689;-70
2022/06/07 09:56:24;;;;;;;5.18;4.68;;;;;;;;;;5000478;28;20592;-70
2022/06/07 09:59:01;;;;;;;6.00;4.07;;;;;;;;;;4998772;28;20108;-71
2022/06/07 10:01:37;;;;;;;6.35;4.10;;;;;;;;;;4999640;28;20117;-71
2022/06/07 10:04:04;;;;;;;18.45;5.55;;;;;;;;;;4999580;28;20061;-73
2022/06/07 10:06:35;;;;;;;19.60;5.70;;;;;;;;;;5000534;28;20082;-59
2022/06/07 10:09:24;;;;;;;6.95;4.63;;;;;;;;;;5005144;28;20124;-72
2022/06/07 10:12:03;;;;;;;7.35;4.85;;;;;;;;;;5001678;28;20466;-72
2022/06/07 10:14:37;;;;;;;6.95;5.07;;;;;;;;;;5001173;28;20580;-71
2022/06/07 10:17:20;;;;;;;8.25;5.00;;;;;;;;;;4997074;28;20085;-71
2022/06/07 10:20:03;;;;;;;11.82;6.40;;;;;;;;;;4999030;28;20143;-61
2022/06/07 10:22:45;;;;;;;21.45;7.32;;;;;;;;;;5001328;28;20057;-59
2022/06/07 10:25:23;;;;;;;48.42;9.35;;;;;;;;;;4997883;28;20057;-48
2022/06/07 10:28:11;;;;;;;24.35;6.80;;;;;;;;;;4999382;28;20054;-58
2022/06/07 10:30:52;;;;;;;14.68;5.53;;;;;;;;;;4998045;28;20073;-57
2022/06/07 10:33:31;;;;;;;10.82;4.70;;;;;;;;;;4995826;28;20061;-57
2022/06/07 10:36:17;;;;;;;12.38;4.03;;;;;;;;;;4997284;28;20513;-56
2022/06/07 10:38:46;;;;;;;11.52;4.22;;;;;;;;;;4998269;28;20097;-57
2022/06/07 10:41:28;;;;;;;15.85;3.60;;;;;;;;;;4998112;28;20086;-58
2022/06/07 10:44:09;;;;;;;8.18;3.45;;;;;;;;;;5000960;28;20078;-56
2022/06/07 10:46:43;;;;;;;10.48;3.85;;;;;;;;;;4983928;28;20054;-58
2022/06/07 10:49:09;;;;;;;3.70;2.95;;;;;;;;;;4999789;28;20364;-57
2022/06/07 10:54:29;;;;;;;4.30;3.20;;;;;;;;;;5001832;28;20050;-53
2022/06/07 10:57:01;;;;;;;4.87;3.23;;;;;;;;;;4998930;28;20611;-56
2022/06/07 10:59:28;;;;;;;5.70;3.00;;;;;;;;;;5002131;28;20046;-55
2022/06/07 11:02:06;;;;;;;3.42;3.13;;;;;;;;;;5000201;28;20096;-59
2022/06/07 11:10:26;;;;;;;2.83;2.30;;;;;;;;;;4999836;28;20092;-60
2022/06/07 11:13:00;;;;;;;5.68;2.30;;;;;;;;;;4997774;28;20489;-60
2022/06/07 11:15:51;;;;;;;6.17;3.00;;;;;;;;;;5001129;28;20625;-60
2022/06/07 11:18:25;;;;;;;3.72;2.60;;;;;;;;;;4998776;28;20141;-59
2022/06/07 11:21:08;;;;;;;3.35;2.72;;;;;;;;;;4997870;28;20734;-49
2022/06/07 11:24:05;;;;;;;2.80;2.55;;;;;;;;;;4998944;28;20085;-58
2022/06/07 11:26:58;;;;;;;4.90;2.33;;;;;;;;;;4995393;28;20054;-60
2022/06/07 11:29:32;;;;;;;4.43;2.47;;;;;;;;;;4996740;28;20097;-60
2022/06/07 11:32:01;;;;;;;4.00;2.83;;;;;;;;;;4998489;28;20464;-60
2022/06/07 11:34:32;;;;;;;3.83;2.97;;;;;;;;;;4998004;28;20081;-60
2022/06/07 11:37:07;;;;;;;3.97;2.60;;;;;;;;;;4997495;28;20062;-60
2022/06/07 11:39:40;;;;;;;5.97;2.88;;;;;;;;;;4997304;28;20045;-60
2022/06/07 11:42:15;;;;;;;4.75;2.78;;;;;;;;;;4998273;28;20054;-51
2022/06/07 11:44:41;;;;;;;3.92;2.70;;;;;;;;;;4998795;28;20050;-58
2022/06/07 11:47:30;;;;;;;3.30;2.63;;;;;;;;;;4995463;28;20509;-57
2022/06/07 11:50:11;;;;;;;3.95;2.88;;;;;;;;;;4998406;28;20077;-55
2022/06/07 11:52:52;;;;;;;5.53;2.70;;;;;;;;;;4995551;28;20101;-56
2022/06/07 11:55:28;;;;;;;5.28;2.70;;;;;;;;;;4999358;28;20136;-55
2022/06/07 11:58:04;;;;;;;8.18;3.28;;;;;;;;;;4995595;28;20068;-58
2022/06/07 12:00:39;;;;;;;4.95;3.00;;;;;;;;;;4997803;28;20081;-62
2022/06/07 12:03:08;;;;;;;6.85;3.42;;;;;;;;;;4995940;28;20050;-50
2022/06/07 12:05:45;;;;;;;4.40;3.13;;;;;;;;;;4998574;28;20058;-47
2022/06/07 12:08:21;;;;;;;3.30;3.00;;;;;;;;;;4996240;28;20097;-50
2022/06/07 12:10:56;;;;;;;4.32;3.40;;;;;;;;;;4996805;28;20054;-49
2022/06/07 12:13:52;;;;;;;3.30;3.00;;;;;;;;;;4998244;28;20204;-53
2022/06/07 12:16:25;;;;;;;5.10;3.30;;;;;;;;;;4996942;28;20505;-48
2022/06/07 12:18:59;;;;;;;4.93;3.63;;;;;;;;;;4996659;28;20410;-48
2022/06/07 12:21:32;;;;;;;6.57;3.13;;;;;;;;;;4998683;28;20153;-60
2022/06/07 12:24:14;;;;;;;4.78;3.30;;;;;;;;;;5000598;28;20085;-56
2022/06/07 12:26:41;;;;;;;4.93;3.40;;;;;;;;;;5000026;28;20053;-58
2022/06/07 12:29:18;;;;;;;7.65;3.63;;;;;;;;;;5002094;28;20073;-58
2022/06/07 12:31:49;;;;;;;5.18;3.42;;;;;;;;;;5000434;28;20517;-56
2022/06/07 12:34:28;;;;;;;7.78;3.53;;;;;;;;;;5001764;28;20593;-58
2022/06/07 12:36:57;;;;;;;3.97;3.20;;;;;;;;;;5000589;28;20100;-58
2022/06/07 12:39:39;;;;;;;6.38;3.00;;;;;;;;;;5002328;28;20062;-66
2022/06/07 12:42:07;;;;;;;6.30;2.97;;;;;;;;;;4999857;28;20054;-60
2022/06/07 12:44:48;;;;;;;8.98;3.83;;;;;;;;;;4996875;28;20090;-60
2022/06/07 12:47:22;;;;;;;5.55;3.42;;;;;;;;;;4998464;28;20131;-60
2022/06/07 12:49:55;;;;;;;4.05;3.38;;;;;;;;;;5002589;28;20278;-59
2022/06/07 12:52:25;;;;;;;4.78;3.30;;;;;;;;;;5000859;28;20077;-59
2022/06/07 12:54:56;;;;;;;3.72;2.92;;;;;;;;;;4999548;28;20106;-59
2022/06/07 12:57:29;;;;;;;;;;;;;;;;;;4999340;28;20097;-56
2022/06/07 13:00:03;;;;;;;4.25;3.40;;;;;;;;;;5001586;28;19981;-62
2022/06/07 13:02:41;;;;;;;3.47;3.15;;;;;;;;;;4998827;28;20054;-63
2022/06/07 13:05:10;;;;;;;5.15;3.67;;;;;;;;;;5000526;28;20572;-62
2022/06/07 13:07:45;;;;;;;3.85;3.22;;;;;;;;;;5002328;28;20058;-63
2022/06/07 13:10:13;;;;;;;3.20;2.90;;;;;;;;;;5001194;28;20081;-64
2022/06/07 13:12:44;;;;;;;4.28;3.00;;;;;;;;;;4999851;28;20058;-64
2022/06/07 13:15:18;;;;;;;3.90;2.72;;;;;;;;;;4998075;28;20488;-62
2022/06/07 13:18:04;;;;;;;5.53;3.30;;;;;;;;;;4999202;28;20058;-67
2022/06/07 13:20:49;;;;;;;4.10;3.20;;;;;;;;;;4999080;28;20112;-48
2022/06/07 13:23:31;;;;;;;4.50;3.17;;;;;;;;;;5001081;28;20085;-50
2022/06/07 13:26:11;;;;;;;4.13;2.97;;;;;;;;;;4998625;28;20050;-52
2022/06/07 13:28:38;;;;;;;4.25;3.20;;;;;;;;;;5000922;28;20542;-51
2022/06/07 13:31:24;;;;;;;4.55;3.30;;;;;;;;;;4999565;28;20050;-49
2022/06/07 13:34:19;;;;;;;4.05;3.30;;;;;;;;;;5000467;28;20138;-48
2022/06/07 13:36:49;;;;;;;5.00;3.42;;;;;;;;;;4998404;28;20517;-58
2022/06/07 13:39:24;;;;;;;4.33;2.90;;;;;;;;;;4999528;28;20097;-59
2022/06/07 13:41:52;;;;;;;8.95;3.22;;;;;;;;;;4998133;28;20093;-59
2022/06/07 13:44:35;;;;;;;6.20;3.53;;;;;;;;;;4998894;28;20100;-59
2022/06/07 13:47:30;;;;;;;4.97;3.08;;;;;;;;;;4999103;28;20144;-59
2022/06/07 13:55:46;;;;;;;4.22;3.35;;;;;;;;;;5004410;28;20058;-57
2022/06/07 13:58:19;;;;;;;;;;;;;;;;;;5000305;28;20470;-62
2022/06/07 14:00:50;;;;;;;4.90;3.08;;;;;;;;;;4998354;28;19922;-63
2022/06/07 14:03:31;;;;;;;3.35;3.05;;;;;;;;;;4998726;28;20484;-62
2022/06/07 14:06:06;;;;;;;;;;;;;;;;;;5003309;28;20108;-63
2022/06/07 14:08:32;;;;;;;3.63;3.00;;;;;;;;;;4998127;28;19983;-63
2022/06/07 14:10:58;;;;;;;4.32;3.30;;;;;;;;;;5002240;28;20998;-62
2022/06/07 14:13:31;;;;;;;5.43;3.35;;;;;;;;;;4998100;28;20089;-47
2022/06/07 14:15:58;;;;;;;6.78;3.30;;;;;;;;;;5000607;28;20054;-66
2022/06/07 14:18:25;;;;;;;4.30;3.33;;;;;;;;;;4998387;28;20050;-57
2022/06/07 14:21:04;;;;;;;3.70;3.22;;;;;;;;;;4999872;28;20513;-55
2022/06/07 14:23:37;;;;;;;6.25;3.28;;;;;;;;;;4998871;28;20494;-56
2022/06/07 14:26:14;;;;;;;4.55;3.45;;;;;;;;;;4996250;28;20054;-56
2022/06/07 14:28:41;;;;;;;4.88;3.90;;;;;;;;;;4996684;28;20085;-56
2022/06/07 14:31:25;;;;;;;6.73;3.53;;;;;;;;;;5000553;28;20078;-54
2022/06/07 14:33:59;;;;;;;4.15;3.50;;;;;;;;;;4999736;28;20050;-55
2022/06/07 14:36:26;;;;;;;7.78;3.28;;;;;;;;;;4997649;28;20139;-65
2022/06/07 14:38:52;;;;;;;4.53;3.58;;;;;;;;;;4998613;28;20093;-64
2022/06/07 14:41:26;;;;;;;3.78;3.38;;;;;;;;;;4997841;28;20061;-64
2022/06/07 14:43:52;;;;;;;3.78;3.45;;;;;;;;;;4996945;28;20536;-63
2022/06/07 14:46:19;;;;;;;6.22;3.70;;;;;;;;;;4997052;28;20465;-63
2022/06/07 14:48:59;;;;;;;4.13;3.58;;;;;;;;;;4998357;28;20086;-63
2022/06/07 14:51:30;;;;;;;3.65;3.30;;;;;;;;;;4999210;28;20109;-44
2022/06/07 14:54:03;;;;;;;3.77;3.33;;;;;;;;;;4996859;28;20058;-57
2022/06/07 14:56:32;;;;;;;6.38;3.40;;;;;;;;;;4999209;28;20333;-64
2022/06/07 14:58:58;;;;;;;5.10;3.60;;;;;;;;;;4999198;28;20415;-65
2022/06/07 15:01:32;;;;;;;4.50;3.15;;;;;;;;;;4997851;28;20089;-64
2022/06/07 15:03:58;;;;;;;5.18;3.50;;;;;;;;;;4984103;28;20046;-63
2022/06/07 15:06:28;;;;;;;4.55;3.25;;;;;;;;;;4997146;28;20054;-65
2022/06/07 15:09:02;;;;;;;3.72;3.13;;;;;;;;;;4997396;28;20141;-64
2022/06/07 15:11:35;;;;;;;4.93;3.50;;;;;;;;;;4998397;28;20129;-57
2022/06/07 15:14:09;;;;;;;7.53;3.28;;;;;;;;;;4995962;28;20085;-65
2022/06/07 15:16:37;;;;;;;3.88;3.47;;;;;;;;;;4995745;28;20103;-64
2022/06/07 15:19:04;;;;;;;;;;;;;;;;;;5002346;28;20049;-65
2022/06/07 15:21:46;;;;;;;4.75;3.45;;;;;;;;;;4999737;28;19925;-64
2022/06/07 15:24:13;;;;;;;3.97;3.58;;;;;;;;;;4998327;28;20058;-65
2022/06/07 15:26:48;;;;;;;3.83;3.53;;;;;;;;;;4994844;28;20121;-65
2022/06/07 15:29:14;;;;;;;4.70;4.07;;;;;;;;;;4996581;28;20116;-59
2022/06/07 15:31:41;;;;;;;4.32;3.53;;;;;;;;;;4998396;28;20050;-54
2022/06/07 15:34:15;;;;;;;5.60;3.72;;;;;;;;;;5000609;28;20081;-58
2022/06/07 15:36:41;;;;;;;3.83;3.45;;;;;;;;;;4998790;28;20089;-57
2022/06/07 15:39:12;;;;;;;10.20;4.20;;;;;;;;;;5003397;28;20058;-58
2022/06/07 15:42:51;;;;;;;6.75;3.90;;;;;;;;;;5000577;28;20501;-57
2022/06/07 15:44:55;;;;;;;4.38;3.97;;;;;;;;;;4989193;28;20591;-56
2022/06/07 15:47:29;;;;;;;6.10;3.70;;;;;;;;;;4998024;28;20117;-58
2022/06/07 15:50:04;;;;;;;7.63;4.05;;;;;;;;;;5001474;28;20053;-66
2022/06/07 15:52:38;;;;;;;3.88;3.58;;;;;;;;;;5000382;28;20053;-51